createdAt,value
2023-01-30T00:01:00.674Z,0
2023-01-30T00:02:14.958Z,0
2023-01-30T00:03:29.363Z,0
2023-01-30T00:04:43.689Z,0
2023-01-30T00:05:57.974Z,0
2023-01-30T00:07:12.247Z,0
2023-01-30T00:08:26.657Z,0
2023-01-30T00:09:41.047Z,0
2023-01-30T00:10:54.426Z,0
2023-01-30T00:12:07.788Z,0
2023-01-30T00:13:22.099Z,0
2023-01-30T00:14:36.394Z,0
2023-01-30T00:15:50.674Z,0
2023-01-30T00:17:05.073Z,0
2023-01-30T00:18:19.407Z,0
2023-01-30T00:19:33.682Z,0
2023-01-30T00:20:47.960Z,0
2023-01-30T00:22:02.371Z,0
2023-01-30T00:23:16.686Z,0
2023-01-30T00:24:30.977Z,0
2023-01-30T00:25:45.259Z,0
2023-01-30T00:26:59.654Z,0
2023-01-30T00:28:13.993Z,0
2023-01-30T00:29:28.274Z,0
2023-01-30T00:30:42.547Z,0
2023-01-30T00:31:56.962Z,0
2023-01-30T00:33:11.272Z,0
2023-01-30T00:34:25.555Z,0
2023-01-30T00:35:39.849Z,0
2023-01-30T00:36:54.246Z,0
2023-01-30T00:38:08.567Z,0
2023-01-30T00:39:22.845Z,0
2023-01-30T00:40:37.142Z,0
2023-01-30T00:41:51.537Z,0
2023-01-30T00:44:20.257Z,0
2023-01-30T00:45:33.613Z,0
2023-01-30T00:46:48.026Z,0
2023-01-30T00:48:02.340Z,0
2023-01-30T00:49:16.623Z,0
2023-01-30T00:50:30.899Z,0
2023-01-30T00:51:45.311Z,0
2023-01-30T00:52:59.642Z,0
2023-01-30T00:54:13.911Z,0
2023-01-30T00:55:28.193Z,0
2023-01-30T00:56:42.613Z,0
2023-01-30T00:57:56.932Z,0
2023-01-30T00:59:11.202Z,0
2023-01-30T01:00:25.482Z,0
2023-01-30T01:01:39.906Z,0
2023-01-30T01:04:08.502Z,0
2023-01-30T01:05:22.790Z,0
2023-01-30T01:06:37.186Z,0
2023-01-30T01:07:51.520Z,0
2023-01-30T01:09:05.788Z,0
2023-01-30T01:10:20.070Z,0
2023-01-30T01:11:34.485Z,0
2023-01-30T01:12:48.817Z,0
2023-01-30T01:14:03.086Z,0
2023-01-30T01:15:17.373Z,0
2023-01-30T01:16:31.826Z,0
2023-01-30T01:17:46.169Z,0
2023-01-30T01:18:59.526Z,0
2023-01-30T01:20:13.813Z,0
2023-01-30T01:21:28.218Z,0
2023-01-30T01:22:42.544Z,0
2023-01-30T01:23:56.824Z,0
2023-01-30T01:25:11.100Z,0
2023-01-30T01:26:25.502Z,0
2023-01-30T01:27:39.823Z,0
2023-01-30T01:30:08.398Z,0
2023-01-30T01:33:51.409Z,0
2023-01-30T01:35:05.631Z,1
2023-01-30T01:36:20.029Z,0
2023-01-30T01:38:48.648Z,0
2023-01-30T01:40:02.918Z,0
2023-01-30T01:41:17.326Z,0
2023-01-30T01:42:31.644Z,0
2023-01-30T01:43:45.924Z,0
2023-01-30T01:45:00.222Z,0
2023-01-30T01:46:14.615Z,0
2023-01-30T01:47:28.942Z,0
2023-01-30T01:48:43.229Z,0
2023-01-30T01:49:57.562Z,0
2023-01-30T01:51:11.981Z,0
2023-01-30T01:52:26.318Z,0
2023-01-30T01:53:39.658Z,0
2023-01-30T01:54:53.937Z,0
2023-01-30T01:56:08.356Z,0
2023-01-30T01:57:22.687Z,0
2023-01-30T01:58:36.958Z,0
2023-01-30T01:59:51.230Z,0
2023-01-30T02:01:05.656Z,0
2023-01-30T02:02:19.968Z,0
2023-01-30T02:03:34.261Z,0
2023-01-30T02:04:48.524Z,0
2023-01-30T02:07:17.262Z,0
2023-01-30T02:08:31.543Z,0
2023-01-30T02:09:45.822Z,0
2023-01-30T02:11:00.226Z,0
2023-01-30T02:12:14.551Z,0
2023-01-30T02:13:28.838Z,0
2023-01-30T02:14:43.117Z,0
2023-01-30T02:15:57.526Z,0
2023-01-30T02:17:11.848Z,0
2023-01-30T02:18:26.134Z,0
2023-01-30T02:19:40.412Z,0
2023-01-30T02:20:54.810Z,0
2023-01-30T02:22:09.136Z,0
2023-01-30T02:23:23.422Z,0
2023-01-30T02:24:37.770Z,0
2023-01-30T02:25:52.166Z,0
2023-01-30T02:27:06.511Z,0
2023-01-30T02:28:19.853Z,0
2023-01-30T02:29:34.129Z,0
2023-01-30T02:30:48.549Z,0
2023-01-30T02:32:02.858Z,0
2023-01-30T02:33:17.146Z,0
2023-01-30T02:34:31.440Z,0
2023-01-30T02:38:14.305Z,0
2023-01-30T02:39:28.638Z,0
2023-01-30T02:40:42.919Z,0
2023-01-30T02:41:57.317Z,0
2023-01-30T02:43:11.634Z,0
2023-01-30T02:44:25.915Z,0
2023-01-30T02:45:40.202Z,0
2023-01-30T02:48:08.929Z,0
2023-01-30T02:49:23.210Z,0
2023-01-30T02:50:37.493Z,0
2023-01-30T02:51:51.910Z,0
2023-01-30T02:53:06.233Z,0
2023-01-30T02:54:20.501Z,0
2023-01-30T02:55:34.785Z,0
2023-01-30T02:56:49.201Z,0
2023-01-30T02:58:03.518Z,0
2023-01-30T02:59:17.862Z,0
2023-01-30T03:00:31.243Z,0
2023-01-30T03:01:45.590Z,0
2023-01-30T03:02:59.919Z,0
2023-01-30T03:04:13.277Z,0
2023-01-30T03:05:27.689Z,0
2023-01-30T03:06:42.000Z,0
2023-01-30T03:07:56.280Z,0
2023-01-30T03:09:10.573Z,0
2023-01-30T03:10:24.000Z,0
2023-01-30T03:11:39.302Z,0
2023-01-30T03:12:53.585Z,0
2023-01-30T03:14:07.865Z,0
2023-01-30T03:15:22.276Z,0
2023-01-30T03:16:36.591Z,0
2023-01-30T03:17:50.866Z,0
2023-01-30T03:19:05.156Z,0
2023-01-30T03:20:19.562Z,0
2023-01-30T03:21:33.880Z,0
2023-01-30T03:22:48.158Z,0
2023-01-30T03:24:02.446Z,0
2023-01-30T03:25:16.848Z,0
2023-01-30T03:26:31.178Z,0
2023-01-30T03:27:45.446Z,0
2023-01-30T03:30:14.151Z,0
2023-01-30T03:31:28.464Z,0
2023-01-30T03:32:42.746Z,0
2023-01-30T03:33:57.030Z,0
2023-01-30T03:35:11.485Z,0
2023-01-30T03:36:25.832Z,0
2023-01-30T03:37:39.250Z,0
2023-01-30T03:38:52.617Z,0
2023-01-30T03:40:06.970Z,0
2023-01-30T03:41:21.296Z,0
2023-01-30T03:42:35.630Z,0
2023-01-30T03:43:48.996Z,0
2023-01-30T03:45:03.309Z,0
2023-01-30T03:46:17.590Z,0
2023-01-30T03:47:31.883Z,0
2023-01-30T03:48:46.290Z,0
2023-01-30T03:50:00.584Z,0
2023-01-30T03:53:43.541Z,0
2023-01-30T03:54:57.880Z,0
2023-01-30T03:56:12.147Z,0
2023-01-30T03:57:26.439Z,0
2023-01-30T03:58:40.853Z,0
2023-01-30T03:59:55.169Z,0
2023-01-30T04:01:09.438Z,0
2023-01-30T04:02:23.730Z,0
2023-01-30T04:03:38.143Z,0
2023-01-30T04:04:52.456Z,0
2023-01-30T04:06:06.747Z,0
2023-01-30T04:07:21.018Z,0
2023-01-30T04:08:35.429Z,0
2023-01-30T04:09:49.755Z,0
2023-01-30T04:11:04.046Z,0
2023-01-30T04:12:18.317Z,0
2023-01-30T04:13:32.735Z,0
2023-01-30T04:14:47.112Z,0
2023-01-30T04:16:00.492Z,0
2023-01-30T04:17:14.827Z,0
2023-01-30T04:18:29.244Z,0
2023-01-30T04:19:43.571Z,0
2023-01-30T04:20:56.978Z,0
2023-01-30T04:22:10.369Z,0
2023-01-30T04:23:24.709Z,0
2023-01-30T04:24:38.055Z,0
2023-01-30T04:25:52.347Z,0
2023-01-30T04:27:06.738Z,0
2023-01-30T04:28:21.069Z,0
2023-01-30T04:29:35.349Z,0
2023-01-30T04:30:49.626Z,0
2023-01-30T04:33:18.370Z,0
2023-01-30T04:34:32.653Z,0
2023-01-30T04:35:46.927Z,0
2023-01-30T04:37:01.341Z,0
2023-01-30T04:38:15.647Z,0
2023-01-30T04:39:29.941Z,0
2023-01-30T04:40:44.214Z,0
2023-01-30T04:41:58.632Z,0
2023-01-30T04:43:12.943Z,0
2023-01-30T04:44:27.218Z,0
2023-01-30T04:45:41.519Z,0
2023-01-30T04:46:55.918Z,0
2023-01-30T04:48:10.152Z,1
2023-01-30T04:49:24.386Z,1
2023-01-30T04:50:38.606Z,1
2023-01-30T04:53:07.143Z,1
2023-01-30T04:54:21.380Z,1
2023-01-30T04:55:35.667Z,1
2023-01-30T04:56:48.957Z,1
2023-01-30T04:58:03.261Z,1
2023-01-30T04:59:17.493Z,1
2023-01-30T05:00:31.727Z,1
2023-01-30T05:01:45.949Z,1
2023-01-30T05:03:00.179Z,1
2023-01-30T05:04:14.476Z,1
2023-01-30T05:05:28.721Z,1
2023-01-30T05:06:42.958Z,1
2023-01-30T05:07:57.176Z,1
2023-01-30T05:09:11.395Z,1
2023-01-30T05:10:25.704Z,1
2023-01-30T05:11:39.950Z,1
2023-01-30T05:14:08.408Z,1
2023-01-30T05:15:22.616Z,1
2023-01-30T05:16:36.924Z,1
2023-01-30T05:17:51.228Z,0
2023-01-30T05:19:05.509Z,0
2023-01-30T05:20:19.778Z,0
2023-01-30T05:22:48.430Z,0
2023-01-30T05:24:02.673Z,1
2023-01-30T05:25:16.949Z,0
2023-01-30T05:26:31.364Z,0
2023-01-30T05:27:45.724Z,0
2023-01-30T05:28:59.110Z,0
2023-01-30T05:30:12.448Z,0
2023-01-30T05:31:26.771Z,0
2023-01-30T05:32:41.046Z,0
2023-01-30T05:33:55.341Z,0
2023-01-30T05:35:09.734Z,0
2023-01-30T05:36:24.068Z,0
2023-01-30T05:37:38.341Z,0
2023-01-30T05:38:52.621Z,0
2023-01-30T05:40:07.040Z,0
2023-01-30T05:41:21.354Z,0
2023-01-30T05:45:04.223Z,0
2023-01-30T05:46:18.534Z,0
2023-01-30T05:47:32.815Z,0
2023-01-30T05:48:47.088Z,0
2023-01-30T05:50:01.503Z,0
2023-01-30T05:51:15.822Z,0
2023-01-30T05:52:30.040Z,1
2023-01-30T05:53:44.268Z,1
2023-01-30T05:54:58.560Z,0
2023-01-30T05:56:12.914Z,1
2023-01-30T05:57:27.156Z,1
2023-01-30T05:58:41.368Z,1
2023-01-30T05:59:55.612Z,1
2023-01-30T06:01:09.889Z,1
2023-01-30T06:02:24.182Z,1
2023-01-30T06:03:38.472Z,1
2023-01-30T06:06:06.114Z,1
2023-01-30T06:07:20.417Z,1
2023-01-30T06:09:48.988Z,1
2023-01-30T06:11:02.289Z,1
2023-01-30T06:12:16.586Z,1
2023-01-30T06:13:30.832Z,1
2023-01-30T06:14:45.051Z,1
2023-01-30T06:15:59.285Z,1
2023-01-30T06:17:13.512Z,1
2023-01-30T06:18:27.816Z,1
2023-01-30T06:19:42.054Z,1
2023-01-30T06:20:56.330Z,0
2023-01-30T06:22:10.564Z,1
2023-01-30T06:23:24.796Z,1
2023-01-30T06:24:39.097Z,1
2023-01-30T06:25:53.332Z,1
2023-01-30T06:27:07.555Z,1
2023-01-30T06:29:36.074Z,1
2023-01-30T06:30:50.370Z,1
2023-01-30T06:32:04.610Z,1
2023-01-30T06:33:18.823Z,1
2023-01-30T06:34:33.079Z,1
2023-01-30T06:35:47.348Z,0
2023-01-30T06:37:01.764Z,0
2023-01-30T06:38:16.079Z,0
2023-01-30T06:40:44.637Z,0
2023-01-30T06:41:59.116Z,0
2023-01-30T06:43:13.405Z,2
2023-01-30T06:44:27.753Z,0
2023-01-30T06:45:41.108Z,1
2023-01-30T06:46:55.503Z,0
2023-01-30T06:48:09.794Z,1
2023-01-30T06:49:23.090Z,2
2023-01-30T06:50:37.309Z,5
2023-01-30T06:51:51.620Z,3
2023-01-30T06:53:05.853Z,5
2023-01-30T06:54:20.079Z,10
2023-01-30T06:55:34.300Z,16
2023-01-30T06:56:48.537Z,10
2023-01-30T06:58:02.844Z,12
2023-01-30T06:59:17.069Z,10
2023-01-30T07:00:31.294Z,10
2023-01-30T07:02:59.759Z,9
2023-01-30T07:04:14.052Z,14
2023-01-30T07:05:28.298Z,24
2023-01-30T07:06:42.535Z,25
2023-01-30T07:07:56.748Z,24
2023-01-30T07:09:10.983Z,29
2023-01-30T07:10:25.274Z,50
2023-01-30T07:11:39.512Z,68
2023-01-30T07:12:53.749Z,67
2023-01-30T07:14:07.977Z,93
2023-01-30T07:15:22.193Z,104
2023-01-30T07:16:36.511Z,149
2023-01-30T07:17:50.744Z,203
2023-01-30T07:19:04.978Z,245
2023-01-30T07:20:19.261Z,298
2023-01-30T07:21:32.583Z,323
2023-01-30T07:24:01.146Z,366
2023-01-30T07:25:15.437Z,385
2023-01-30T07:26:29.723Z,401
2023-01-30T07:27:44.027Z,428
2023-01-30T07:28:58.311Z,453
2023-01-30T07:30:11.667Z,476
2023-01-30T07:31:24.989Z,501
2023-01-30T07:32:39.268Z,538
2023-01-30T07:33:53.562Z,532
2023-01-30T07:35:06.912Z,557
2023-01-30T07:36:21.213Z,594
2023-01-30T07:37:35.491Z,614
2023-01-30T07:38:49.787Z,639
2023-01-30T07:41:17.370Z,667
2023-01-30T07:42:31.619Z,682
2023-01-30T07:43:45.834Z,709
2023-01-30T07:45:00.075Z,735
2023-01-30T07:46:14.289Z,766
2023-01-30T07:47:28.590Z,804
2023-01-30T07:48:42.833Z,850
2023-01-30T07:49:57.067Z,877
2023-01-30T07:51:11.302Z,910
2023-01-30T07:52:25.521Z,935
2023-01-30T07:53:39.820Z,1009
2023-01-30T07:54:54.070Z,1088
2023-01-30T07:56:08.290Z,1154
2023-01-30T07:57:22.508Z,1214
2023-01-30T07:58:36.748Z,1206
2023-01-30T07:59:51.048Z,1317
2023-01-30T08:01:05.283Z,1317
2023-01-30T08:02:19.507Z,1415
2023-01-30T08:04:47.960Z,1709
2023-01-30T08:06:02.274Z,1487
2023-01-30T08:07:16.513Z,1494
2023-01-30T08:08:30.727Z,1606
2023-01-30T08:10:59.242Z,1505
2023-01-30T08:12:13.549Z,1443
2023-01-30T08:13:27.824Z,1560
2023-01-30T08:14:41.122Z,1675
2023-01-30T08:15:55.344Z,1735
2023-01-30T08:17:09.661Z,1891
2023-01-30T08:18:23.887Z,1827
2023-01-30T08:19:38.254Z,2102
2023-01-30T08:20:52.473Z,2136
2023-01-30T08:22:06.692Z,2283
2023-01-30T08:23:21.008Z,1893
2023-01-30T08:24:35.234Z,1599
2023-01-30T08:25:49.478Z,1320
2023-01-30T08:27:03.689Z,1346
2023-01-30T08:28:17.915Z,1255
2023-01-30T08:29:32.214Z,1220
2023-01-30T08:30:46.468Z,1745
2023-01-30T08:32:00.686Z,1026
2023-01-30T08:33:14.917Z,1165
2023-01-30T08:34:29.151Z,1480
2023-01-30T08:35:43.439Z,1618
2023-01-30T08:36:57.681Z,1943
2023-01-30T08:38:11.913Z,1971
2023-01-30T08:39:26.136Z,1682
2023-01-30T08:40:40.368Z,1622
2023-01-30T08:41:54.664Z,2238
2023-01-30T08:43:08.908Z,2190
2023-01-30T08:44:23.142Z,2988
2023-01-30T08:45:37.364Z,3442
2023-01-30T08:46:51.592Z,2790
2023-01-30T08:48:05.882Z,2244
2023-01-30T08:49:20.130Z,2090
2023-01-30T08:50:34.362Z,3208
2023-01-30T08:51:48.588Z,2044
2023-01-30T08:53:02.809Z,2700
2023-01-30T08:55:31.359Z,14713
2023-01-30T08:56:45.578Z,3038
2023-01-30T08:57:59.801Z,2483
2023-01-30T08:59:14.025Z,1848
2023-01-30T09:00:28.325Z,2570
2023-01-30T09:01:42.564Z,2572
2023-01-30T09:02:56.804Z,2323
2023-01-30T09:04:11.019Z,2049
2023-01-30T09:05:25.312Z,2732
2023-01-30T09:06:39.615Z,2059
2023-01-30T09:07:53.896Z,3517
2023-01-30T09:09:07.200Z,2685
2023-01-30T09:10:21.427Z,2900
2023-01-30T09:11:35.724Z,3103
2023-01-30T09:12:49.950Z,5409
2023-01-30T09:14:04.179Z,2507
2023-01-30T09:15:18.422Z,9753
2023-01-30T09:16:32.638Z,6268
2023-01-30T09:19:01.173Z,16275
2023-01-30T09:20:15.539Z,6461
2023-01-30T09:21:29.755Z,7099
2023-01-30T09:22:43.982Z,2827
2023-01-30T09:23:58.289Z,2938
2023-01-30T09:25:12.526Z,2683
2023-01-30T09:26:26.744Z,3654
2023-01-30T09:27:40.981Z,2922
2023-01-30T09:28:55.210Z,2507
2023-01-30T09:30:09.509Z,2851
2023-01-30T09:31:23.742Z,2566
2023-01-30T09:32:37.982Z,1765
2023-01-30T09:33:52.205Z,2027
2023-01-30T09:35:06.425Z,1976
2023-01-30T09:38:49.185Z,1724
2023-01-30T09:42:32.300Z,1863
2023-01-30T09:43:46.561Z,2173
2023-01-30T09:45:00.788Z,1901
2023-01-30T09:46:14.997Z,2395
2023-01-30T09:47:29.240Z,2168
2023-01-30T09:48:43.532Z,1834
2023-01-30T09:49:57.777Z,1841
2023-01-30T09:51:12.003Z,1952
2023-01-30T09:52:26.222Z,2001
2023-01-30T09:53:40.462Z,2243
2023-01-30T09:54:54.749Z,1837
2023-01-30T09:56:08.998Z,2589
2023-01-30T09:58:37.457Z,3509
2023-01-30T09:59:51.685Z,3517
2023-01-30T10:01:05.975Z,4491
2023-01-30T10:02:20.226Z,4401
2023-01-30T10:03:34.449Z,4835
2023-01-30T10:04:48.673Z,4487
2023-01-30T10:06:02.966Z,4189
2023-01-30T10:08:31.537Z,3048
2023-01-30T10:09:44.867Z,2952
2023-01-30T10:10:58.163Z,2296
2023-01-30T10:12:12.410Z,2692
2023-01-30T10:13:26.637Z,2617
2023-01-30T10:14:40.867Z,2779
2023-01-30T10:15:55.089Z,3134
2023-01-30T10:17:09.396Z,3410
2023-01-30T10:18:23.626Z,4782
2023-01-30T10:19:37.865Z,4317
2023-01-30T10:20:52.000Z,3542
2023-01-30T10:22:06.318Z,3502
2023-01-30T10:23:20.614Z,3384
2023-01-30T10:24:34.842Z,4761
2023-01-30T10:25:49.085Z,6004
2023-01-30T10:27:03.298Z,4948
2023-01-30T10:28:17.531Z,4125
2023-01-30T10:29:31.833Z,4848
2023-01-30T10:30:46.071Z,3898
2023-01-30T10:32:00.303Z,2942
2023-01-30T10:33:14.526Z,2392
2023-01-30T10:34:28.746Z,2380
2023-01-30T10:35:43.045Z,3037
2023-01-30T10:36:57.286Z,3204
2023-01-30T10:38:11.524Z,2311
2023-01-30T10:39:25.749Z,2233
2023-01-30T10:40:39.975Z,2393
2023-01-30T10:41:54.327Z,3249
2023-01-30T10:43:08.619Z,3525
2023-01-30T10:44:21.918Z,3103
2023-01-30T10:45:36.136Z,3368
2023-01-30T10:46:50.434Z,3684
2023-01-30T10:48:04.676Z,2898
2023-01-30T10:49:18.915Z,3608
2023-01-30T10:50:33.133Z,3469
2023-01-30T10:51:47.360Z,9190
2023-01-30T10:53:01.659Z,4458
2023-01-30T10:54:15.908Z,4701
2023-01-30T10:55:30.144Z,5100
2023-01-30T10:56:44.359Z,4895
2023-01-30T10:57:58.594Z,5431
2023-01-30T10:59:12.886Z,6648
2023-01-30T11:00:27.130Z,6412
2023-01-30T11:02:55.584Z,3796
2023-01-30T11:04:09.799Z,4425
2023-01-30T11:05:24.101Z,3544
2023-01-30T11:06:38.357Z,3675
2023-01-30T11:07:52.572Z,2906
2023-01-30T11:09:06.796Z,2945
2023-01-30T11:10:21.031Z,2841
2023-01-30T11:11:35.332Z,3198
2023-01-30T11:12:49.567Z,3033
2023-01-30T11:14:03.804Z,2695
2023-01-30T11:15:18.089Z,2405
2023-01-30T11:16:31.424Z,2060
2023-01-30T11:17:45.710Z,2809
2023-01-30T11:20:13.216Z,3223
2023-01-30T11:21:27.000Z,2411
2023-01-30T11:22:41.763Z,3593
2023-01-30T11:23:55.989Z,4985
2023-01-30T11:25:10.224Z,3384
2023-01-30T11:27:38.740Z,3307
2023-01-30T11:28:52.984Z,3451
2023-01-30T11:30:07.211Z,5266
2023-01-30T11:31:21.434Z,3219
2023-01-30T11:32:35.665Z,3245
2023-01-30T11:33:49.971Z,4546
2023-01-30T11:35:04.209Z,3509
2023-01-30T11:36:18.426Z,3656
2023-01-30T11:37:32.667Z,3648
2023-01-30T11:38:46.882Z,3757
2023-01-30T11:40:01.194Z,5489
2023-01-30T11:41:15.434Z,20775
2023-01-30T11:42:29.660Z,11588
2023-01-30T11:43:43.872Z,6702
2023-01-30T11:44:58.104Z,17380
2023-01-30T11:46:12.408Z,4554
2023-01-30T11:47:26.657Z,1850
2023-01-30T11:48:40.868Z,5093
2023-01-30T11:49:55.239Z,4711
2023-01-30T11:51:09.482Z,3905
2023-01-30T11:52:23.772Z,3702
2023-01-30T11:53:38.022Z,22271
2023-01-30T11:54:52.237Z,6801
2023-01-30T11:56:06.458Z,5274
2023-01-30T11:57:20.688Z,3977
2023-01-30T11:58:35.000Z,4399
2023-01-30T11:59:49.232Z,4711
2023-01-30T12:01:03.454Z,5343
2023-01-30T12:02:17.683Z,4157
2023-01-30T12:03:31.910Z,3030
2023-01-30T12:04:46.207Z,3462
2023-01-30T12:06:00.463Z,4731
2023-01-30T12:07:14.690Z,5281
2023-01-30T12:08:28.911Z,3038
2023-01-30T12:09:43.135Z,2343
2023-01-30T12:10:57.445Z,3803
2023-01-30T12:12:11.682Z,4050
2023-01-30T12:13:25.908Z,5402
2023-01-30T12:14:40.140Z,4777
2023-01-30T12:15:54.359Z,4591
2023-01-30T12:17:08.000Z,2264
2023-01-30T12:18:22.896Z,1584
2023-01-30T12:19:37.132Z,1574
2023-01-30T12:20:51.412Z,4079
2023-01-30T12:22:04.734Z,4959
2023-01-30T12:23:19.031Z,6124
2023-01-30T12:24:33.311Z,2880
2023-01-30T12:25:46.612Z,2704
2023-01-30T12:28:15.147Z,3315
2023-01-30T12:30:43.592Z,3341
2023-01-30T12:31:57.824Z,2602
2023-01-30T12:33:12.127Z,1760
2023-01-30T12:34:26.363Z,1702
2023-01-30T12:35:40.598Z,3837
2023-01-30T12:36:54.820Z,3593
2023-01-30T12:38:09.055Z,3103
2023-01-30T12:39:23.355Z,6743
2023-01-30T12:40:37.593Z,4791
2023-01-30T12:41:51.816Z,5961
2023-01-30T12:43:06.045Z,4429
2023-01-30T12:44:20.262Z,2342
2023-01-30T12:45:34.562Z,5640
2023-01-30T12:46:48.815Z,5295
2023-01-30T12:48:03.036Z,5617
2023-01-30T12:49:17.254Z,6224
2023-01-30T12:50:31.487Z,8268
2023-01-30T12:51:45.791Z,3943
2023-01-30T12:53:00.023Z,4726
2023-01-30T12:54:14.262Z,2733
2023-01-30T12:55:28.481Z,4821
2023-01-30T12:56:42.762Z,6806
2023-01-30T12:57:57.076Z,6244
2023-01-30T12:59:11.352Z,7960
2023-01-30T13:00:24.674Z,7193
2023-01-30T13:01:38.972Z,9059
2023-01-30T13:02:53.272Z,6836
2023-01-30T13:04:07.549Z,5680
2023-01-30T13:05:20.844Z,3679
2023-01-30T13:06:35.066Z,3528
2023-01-30T13:07:49.367Z,3177
2023-01-30T13:10:17.843Z,2599
2023-01-30T13:11:32.059Z,2280
2023-01-30T13:12:46.292Z,2162
2023-01-30T13:15:14.830Z,1812
2023-01-30T13:16:29.065Z,1839
2023-01-30T13:17:43.283Z,1407
2023-01-30T13:18:57.516Z,1206
2023-01-30T13:20:11.807Z,1574
2023-01-30T13:21:26.056Z,1654
2023-01-30T13:22:40.287Z,1077
2023-01-30T13:25:08.740Z,551
2023-01-30T13:26:23.033Z,496
2023-01-30T13:27:37.278Z,526
2023-01-30T13:28:51.504Z,440
2023-01-30T13:30:05.731Z,471
2023-01-30T13:32:34.256Z,989
2023-01-30T13:33:48.506Z,1023
2023-01-30T13:35:02.733Z,763
2023-01-30T13:36:17.021Z,604
2023-01-30T13:38:44.620Z,422
2023-01-30T13:39:58.916Z,344
2023-01-30T13:41:12.269Z,307
2023-01-30T13:43:40.849Z,531
2023-01-30T13:44:54.178Z,498
2023-01-30T13:46:08.462Z,452
2023-01-30T13:47:22.753Z,396
2023-01-30T13:48:37.053Z,281
2023-01-30T13:49:51.337Z,465
2023-01-30T13:51:05.609Z,1010
2023-01-30T13:53:34.190Z,1897
2023-01-30T13:54:48.472Z,2608
2023-01-30T13:56:02.758Z,2334
2023-01-30T13:57:17.056Z,3430
2023-01-30T13:58:31.333Z,3749
2023-01-30T13:59:45.636Z,3473
2023-01-30T14:00:59.908Z,892
2023-01-30T14:02:14.211Z,2721
2023-01-30T14:03:27.559Z,2115
2023-01-30T14:04:41.860Z,2893
2023-01-30T14:05:56.144Z,2298
2023-01-30T14:08:23.749Z,3340
2023-01-30T14:09:38.049Z,3087
2023-01-30T14:10:52.346Z,2106
2023-01-30T14:12:05.682Z,1782
2023-01-30T14:13:19.032Z,1947
2023-01-30T14:14:33.305Z,1626
2023-01-30T14:15:47.582Z,1691
2023-01-30T14:17:01.882Z,2502
2023-01-30T14:18:16.157Z,3358
2023-01-30T14:19:43.945Z,4416
2023-01-30T14:20:44.733Z,4288
2023-01-30T14:21:58.078Z,3255
2023-01-30T14:23:11.424Z,3551
2023-01-30T14:24:25.700Z,2352
2023-01-30T14:25:39.977Z,3205
2023-01-30T14:28:08.547Z,2228
2023-01-30T14:29:22.860Z,1964
2023-01-30T14:30:37.141Z,2458
2023-01-30T14:31:51.416Z,2233
2023-01-30T14:33:05.714Z,2143
2023-01-30T14:34:19.995Z,1949
2023-01-30T14:35:34.286Z,2207
2023-01-30T14:36:48.578Z,2478
2023-01-30T14:38:02.857Z,2661
2023-01-30T14:39:16.181Z,2629
2023-01-30T14:40:30.488Z,2607
2023-01-30T14:41:44.780Z,2576
2023-01-30T14:42:58.059Z,2274
2023-01-30T14:45:26.588Z,2557
2023-01-30T14:46:40.838Z,2732
2023-01-30T14:47:55.058Z,2766
2023-01-30T14:49:09.292Z,2435
2023-01-30T14:50:23.505Z,2460
2023-01-30T14:51:37.824Z,1867
2023-01-30T14:52:52.065Z,1692
2023-01-30T14:54:06.308Z,2316
2023-01-30T14:55:20.534Z,1932
2023-01-30T14:56:34.745Z,2372
2023-01-30T14:57:49.056Z,1544
2023-01-30T14:59:03.301Z,1526
2023-01-30T15:00:17.515Z,1781
2023-01-30T15:01:31.749Z,1510
2023-01-30T15:02:45.967Z,1566
2023-01-30T15:04:00.273Z,1294
2023-01-30T15:05:14.527Z,1559
2023-01-30T15:06:28.740Z,1456
2023-01-30T15:07:42.975Z,1210
2023-01-30T15:08:57.197Z,859
2023-01-30T15:10:11.495Z,1229
2023-01-30T15:11:25.735Z,1066
2023-01-30T15:12:39.968Z,1265
2023-01-30T15:13:54.247Z,1328
2023-01-30T15:15:07.596Z,1174
2023-01-30T15:16:21.882Z,973
2023-01-30T15:18:49.391Z,561
2023-01-30T15:20:03.708Z,572
2023-01-30T15:21:17.940Z,768
2023-01-30T15:23:46.397Z,855
2023-01-30T15:25:00.612Z,895
2023-01-30T15:26:14.922Z,1002
2023-01-30T15:27:29.171Z,975
2023-01-30T15:29:57.625Z,981
2023-01-30T15:31:11.847Z,1060
2023-01-30T15:32:26.139Z,823
2023-01-30T15:33:40.379Z,934
2023-01-30T15:34:54.614Z,928
2023-01-30T15:36:08.834Z,873
2023-01-30T15:37:23.058Z,798
2023-01-30T15:38:37.361Z,818
2023-01-30T15:39:51.614Z,829
2023-01-30T15:41:05.822Z,659
2023-01-30T15:42:20.054Z,708
2023-01-30T15:43:34.275Z,640
2023-01-30T15:44:48.586Z,616
2023-01-30T15:46:02.825Z,571
2023-01-30T15:47:17.054Z,562
2023-01-30T15:48:31.343Z,503
2023-01-30T15:49:44.666Z,481
2023-01-30T15:50:58.945Z,502
2023-01-30T15:52:13.231Z,486
2023-01-30T15:53:26.541Z,531
2023-01-30T15:54:40.824Z,481
2023-01-30T15:55:55.079Z,479
2023-01-30T15:57:09.310Z,429
2023-01-30T15:58:23.522Z,407
2023-01-30T15:59:37.756Z,391
2023-01-30T16:00:52.063Z,359
2023-01-30T16:02:06.289Z,335
2023-01-30T16:03:20.526Z,299
2023-01-30T16:04:34.760Z,283
2023-01-30T16:05:48.977Z,282
2023-01-30T16:07:03.269Z,242
2023-01-30T16:08:17.529Z,215
2023-01-30T16:09:31.743Z,198
2023-01-30T16:10:45.980Z,180
2023-01-30T16:12:00.196Z,159
2023-01-30T16:13:14.499Z,149
2023-01-30T16:14:28.733Z,115
2023-01-30T16:15:42.964Z,104
2023-01-30T16:16:57.187Z,84
2023-01-30T16:18:11.422Z,77
2023-01-30T16:19:25.730Z,67
2023-01-30T16:20:39.960Z,57
2023-01-30T16:21:54.180Z,54
2023-01-30T16:23:08.420Z,41
2023-01-30T16:24:22.711Z,38
2023-01-30T16:25:37.000Z,30
2023-01-30T16:26:51.290Z,21
2023-01-30T16:28:04.572Z,16
2023-01-30T16:29:18.806Z,17
2023-01-30T16:30:33.099Z,6
2023-01-30T16:31:47.351Z,5
2023-01-30T16:33:01.581Z,6
2023-01-30T16:34:15.798Z,6
2023-01-30T16:35:30.032Z,5
2023-01-30T16:36:44.333Z,2
2023-01-30T16:37:58.570Z,5
2023-01-30T16:39:12.800Z,3
2023-01-30T16:40:27.013Z,1
2023-01-30T16:41:41.298Z,0
2023-01-30T16:42:55.710Z,0
2023-01-30T16:44:10.045Z,0
2023-01-30T16:46:38.600Z,0
2023-01-30T16:47:53.004Z,0
2023-01-30T16:49:07.339Z,0
2023-01-30T16:50:21.732Z,0
2023-01-30T16:51:36.067Z,0
2023-01-30T16:52:50.354Z,0
2023-01-30T16:54:04.743Z,0
2023-01-30T16:55:19.070Z,0
2023-01-30T16:56:33.304Z,1
2023-01-30T16:57:47.539Z,1
2023-01-30T17:00:16.073Z,1
2023-01-30T17:01:30.312Z,1
2023-01-30T17:02:44.524Z,1
2023-01-30T17:03:58.758Z,1
2023-01-30T17:05:12.978Z,1
2023-01-30T17:06:27.279Z,1
2023-01-30T17:07:41.538Z,1
2023-01-30T17:08:55.763Z,1
2023-01-30T17:10:09.976Z,1
2023-01-30T17:11:24.225Z,1
2023-01-30T17:12:38.523Z,1
2023-01-30T17:13:52.756Z,1
2023-01-30T17:15:07.046Z,0
2023-01-30T17:16:21.263Z,1
2023-01-30T17:17:35.512Z,1
2023-01-30T17:18:49.814Z,1
2023-01-30T17:20:04.050Z,1
2023-01-30T17:21:18.338Z,0
2023-01-30T17:22:32.573Z,1
2023-01-30T17:23:46.805Z,1
2023-01-30T17:25:01.174Z,0
2023-01-30T17:26:15.442Z,1
2023-01-30T17:27:29.685Z,1
2023-01-30T17:28:43.927Z,1
2023-01-30T17:29:58.147Z,1
2023-01-30T17:31:12.494Z,0
2023-01-30T17:32:26.748Z,1
2023-01-30T17:33:40.976Z,1
2023-01-30T17:34:55.199Z,1
2023-01-30T17:36:09.490Z,1
2023-01-30T17:37:23.839Z,0
2023-01-30T17:38:38.139Z,1
2023-01-30T17:39:51.478Z,0
2023-01-30T17:41:05.762Z,0
2023-01-30T17:42:20.114Z,1
2023-01-30T17:43:34.413Z,0
2023-01-30T17:44:48.688Z,0
2023-01-30T17:46:02.916Z,1
2023-01-30T17:47:17.199Z,0
2023-01-30T17:49:45.843Z,0
2023-01-30T17:51:00.136Z,0
2023-01-30T17:52:14.359Z,1
2023-01-30T17:53:28.659Z,1
2023-01-30T17:54:42.910Z,1
2023-01-30T17:55:57.206Z,0
2023-01-30T17:57:11.532Z,0
2023-01-30T17:58:25.804Z,0
2023-01-30T17:59:40.206Z,0
2023-01-30T18:00:54.487Z,1
2023-01-30T18:02:08.765Z,0
2023-01-30T18:03:23.101Z,0
2023-01-30T18:04:37.381Z,0
2023-01-30T18:05:51.778Z,0
2023-01-30T18:07:06.119Z,0
2023-01-30T18:08:20.390Z,0
2023-01-30T18:09:34.678Z,0
2023-01-30T18:10:49.149Z,0
2023-01-30T18:12:03.471Z,0
2023-01-30T18:13:16.855Z,0
2023-01-30T18:15:45.561Z,1
2023-01-30T18:16:59.854Z,1
2023-01-30T18:18:13.140Z,1
2023-01-30T18:19:27.380Z,1
2023-01-30T18:20:41.668Z,1
2023-01-30T18:21:55.915Z,1
2023-01-30T18:23:10.149Z,1
2023-01-30T18:24:24.368Z,1
2023-01-30T18:25:38.601Z,1
2023-01-30T18:26:52.900Z,1
2023-01-30T18:28:07.139Z,1
2023-01-30T18:29:21.370Z,1
2023-01-30T18:31:49.828Z,1
2023-01-30T18:34:18.368Z,1
2023-01-30T18:35:32.660Z,0
2023-01-30T18:36:46.885Z,1
2023-01-30T18:38:01.000Z,1
2023-01-30T18:39:15.417Z,1